createdAt,value
2023-02-14T00:00:45.747Z,18.38
2023-02-14T00:01:45.733Z,18.37
2023-02-14T00:02:45.767Z,18.40
2023-02-14T00:03:45.717Z,18.37
2023-02-14T00:04:45.740Z,18.38
2023-02-14T00:05:45.688Z,18.37
2023-02-14T00:06:45.680Z,18.38
2023-02-14T00:07:45.660Z,18.37
2023-02-14T00:08:45.676Z,18.37
2023-02-14T00:09:45.645Z,18.38
2023-02-14T00:10:45.635Z,18.37
2023-02-14T00:11:45.622Z,18.35
2023-02-14T00:12:45.625Z,18.35
2023-02-14T00:13:45.604Z,18.33
2023-02-14T00:14:45.600Z,18.33
2023-02-14T00:15:45.598Z,18.34
2023-02-14T00:16:45.565Z,18.34
2023-02-14T00:17:45.559Z,18.34
2023-02-14T00:18:45.569Z,18.35
2023-02-14T00:19:45.531Z,18.34
2023-02-14T00:20:45.537Z,18.33
2023-02-14T00:21:45.505Z,18.33
2023-02-14T00:22:45.560Z,18.34
2023-02-14T00:23:45.500Z,18.33
2023-02-14T00:24:45.481Z,18.33
2023-02-14T00:25:45.478Z,18.34
2023-02-14T00:26:45.463Z,18.34
2023-02-14T00:27:45.452Z,18.31
2023-02-14T00:28:45.436Z,18.29
2023-02-14T00:29:45.428Z,18.29
2023-02-14T00:30:45.428Z,18.29
2023-02-14T00:31:45.453Z,18.31
2023-02-14T00:32:45.391Z,18.31
2023-02-14T00:33:45.378Z,18.29
2023-02-14T00:34:45.378Z,18.31
2023-02-14T00:35:45.393Z,18.31
2023-02-14T00:36:45.346Z,18.28
2023-02-14T00:37:45.332Z,18.28
2023-02-14T00:38:45.333Z,18.29
2023-02-14T00:39:45.321Z,18.31
2023-02-14T00:40:45.310Z,18.29
2023-02-14T00:41:45.282Z,18.29
2023-02-14T00:42:45.295Z,18.29
2023-02-14T00:43:45.263Z,18.33
2023-02-14T00:44:45.257Z,18.31
2023-02-14T00:45:45.313Z,18.33
2023-02-14T00:46:45.231Z,18.33
2023-02-14T00:47:45.220Z,18.31
2023-02-14T00:48:45.219Z,18.29
2023-02-14T00:49:45.198Z,18.31
2023-02-14T00:50:45.204Z,18.33
2023-02-14T00:51:45.181Z,18.29
2023-02-14T00:52:45.170Z,18.28
2023-02-14T00:53:45.156Z,18.28
2023-02-14T00:54:45.153Z,18.28
2023-02-14T00:55:45.146Z,18.28
2023-02-14T00:56:45.137Z,18.28
2023-02-14T00:57:45.114Z,18.28
2023-02-14T00:58:45.106Z,18.26
2023-02-14T00:59:45.108Z,18.28
2023-02-14T01:00:45.106Z,18.28
2023-02-14T01:01:45.077Z,18.28
2023-02-14T01:02:45.138Z,18.26
2023-02-14T01:03:45.070Z,18.25
2023-02-14T01:04:45.041Z,18.20
2023-02-14T01:05:45.033Z,18.23
2023-02-14T01:06:45.050Z,18.22
2023-02-14T01:07:45.012Z,18.20
2023-02-14T01:08:45.005Z,18.18
2023-02-14T01:09:45.000Z,18.18
2023-02-14T01:10:44.980Z,18.18
2023-02-14T01:11:44.979Z,18.16
2023-02-14T01:12:45.056Z,18.16
2023-02-14T01:13:44.934Z,18.15
2023-02-14T01:14:44.931Z,18.13
2023-02-14T01:15:44.924Z,18.16
2023-02-14T01:16:44.950Z,18.18
2023-02-14T01:17:44.897Z,18.15
2023-02-14T01:18:44.898Z,18.15
2023-02-14T01:19:44.875Z,18.16
2023-02-14T01:20:44.882Z,18.16
2023-02-14T01:21:44.847Z,18.15
2023-02-14T01:22:44.852Z,18.16
2023-02-14T01:23:44.832Z,18.16
2023-02-14T01:24:44.842Z,18.18
2023-02-14T01:25:44.818Z,18.18
2023-02-14T01:26:44.799Z,18.15
2023-02-14T01:27:44.797Z,18.15
2023-02-14T01:28:44.785Z,18.16
2023-02-14T01:29:44.758Z,18.19
2023-02-14T01:30:44.773Z,18.15
2023-02-14T01:31:44.851Z,18.16
2023-02-14T01:32:44.752Z,18.15
2023-02-14T01:33:44.766Z,18.16
2023-02-14T01:34:44.709Z,18.15
2023-02-14T01:35:44.739Z,18.16
2023-02-14T01:36:44.692Z,18.15
2023-02-14T01:37:44.677Z,18.15
2023-02-14T01:38:44.681Z,18.13
2023-02-14T01:39:44.659Z,18.15
2023-02-14T01:40:44.653Z,18.15
2023-02-14T01:41:44.640Z,18.15
2023-02-14T01:42:44.867Z,18.13
2023-02-14T01:43:44.614Z,18.16
2023-02-14T01:44:44.624Z,18.13
2023-02-14T01:45:44.633Z,18.11
2023-02-14T01:46:44.625Z,18.10
2023-02-14T01:47:44.590Z,18.10
2023-02-14T01:48:44.570Z,18.11
2023-02-14T01:49:44.564Z,18.10
2023-02-14T01:50:44.550Z,18.10
2023-02-14T01:51:44.550Z,18.10
2023-02-14T01:52:44.538Z,18.08
2023-02-14T01:53:44.536Z,18.10
2023-02-14T01:54:44.525Z,18.05
2023-02-14T01:55:44.508Z,18.05
2023-02-14T01:56:44.501Z,18.07
2023-02-14T01:57:44.484Z,18.04
2023-02-14T01:58:44.476Z,18.04
2023-02-14T01:59:44.460Z,18.01
2023-02-14T02:00:44.498Z,18.03
2023-02-14T02:01:44.434Z,18.03
2023-02-14T02:02:44.474Z,18.01
2023-02-14T02:03:44.427Z,18.01
2023-02-14T02:04:44.410Z,18.00
2023-02-14T02:05:44.391Z,18.00
2023-02-14T02:06:44.410Z,18.00
2023-02-14T02:07:44.372Z,18.01
2023-02-14T02:08:44.373Z,17.97
2023-02-14T02:09:44.357Z,17.97
2023-02-14T02:10:44.344Z,17.95
2023-02-14T02:11:44.329Z,17.97
2023-02-14T02:12:44.320Z,17.95
2023-02-14T02:13:44.312Z,17.95
2023-02-14T02:14:44.324Z,17.95
2023-02-14T02:15:44.284Z,17.97
2023-02-14T02:16:44.342Z,17.92
2023-02-14T02:17:44.267Z,17.92
2023-02-14T02:18:44.260Z,17.92
2023-02-14T02:19:44.261Z,17.92
2023-02-14T02:20:44.239Z,17.90
2023-02-14T02:21:44.228Z,17.89
2023-02-14T02:22:44.218Z,17.89
2023-02-14T02:23:44.206Z,17.87
2023-02-14T02:24:44.206Z,17.89
2023-02-14T02:25:44.193Z,17.85
2023-02-14T02:26:44.171Z,17.86
2023-02-14T02:27:50.141Z,17.85
2023-02-14T02:28:44.173Z,17.83
2023-02-14T02:29:44.146Z,17.86
2023-02-14T02:30:44.257Z,17.83
2023-02-14T02:31:44.290Z,17.85
2023-02-14T02:32:44.112Z,17.82
2023-02-14T02:33:44.110Z,17.83
2023-02-14T02:34:44.108Z,17.83
2023-02-14T02:35:44.083Z,17.85
2023-02-14T02:36:44.085Z,17.82
2023-02-14T02:37:44.081Z,17.82
2023-02-14T02:38:44.051Z,17.82
2023-02-14T02:39:44.039Z,17.80
2023-02-14T02:40:44.046Z,17.82
2023-02-14T02:41:44.024Z,17.80
2023-02-14T02:42:44.024Z,17.80
2023-02-14T02:43:43.992Z,17.82
2023-02-14T02:44:43.992Z,17.80
2023-02-14T02:45:44.035Z,17.79
2023-02-14T02:46:43.983Z,17.79
2023-02-14T02:47:44.375Z,17.78
2023-02-14T02:48:43.959Z,17.79
2023-02-14T02:49:43.940Z,17.79
2023-02-14T02:50:43.937Z,17.78
2023-02-14T02:51:43.913Z,17.79
2023-02-14T02:52:43.920Z,17.78
2023-02-14T02:53:43.895Z,17.76
2023-02-14T02:54:43.892Z,17.78
2023-02-14T02:55:43.870Z,17.78
2023-02-14T02:56:43.881Z,17.78
2023-02-14T02:57:43.862Z,17.79
2023-02-14T02:58:43.849Z,17.80
2023-02-14T02:59:43.827Z,17.78
2023-02-14T03:00:43.819Z,17.78
2023-02-14T03:01:43.864Z,17.79
2023-02-14T03:02:43.799Z,17.78
2023-02-14T03:03:43.795Z,17.79
2023-02-14T03:04:43.825Z,17.82
2023-02-14T03:05:43.785Z,17.79
2023-02-14T03:06:43.759Z,17.82
2023-02-14T03:07:43.756Z,17.80
2023-02-14T03:08:43.750Z,17.80
2023-02-14T03:09:43.727Z,17.82
2023-02-14T03:10:43.722Z,17.83
2023-02-14T03:11:43.705Z,17.80
2023-02-14T03:12:43.751Z,17.82
2023-02-14T03:13:43.689Z,17.82
2023-02-14T03:14:43.680Z,17.83
2023-02-14T03:15:43.698Z,17.83
2023-02-14T03:16:43.657Z,17.85
2023-02-14T03:17:43.650Z,17.83
2023-02-14T03:18:43.648Z,17.85
2023-02-14T03:19:43.621Z,17.85
2023-02-14T03:20:43.626Z,17.83
2023-02-14T03:21:43.603Z,17.83
2023-02-14T03:22:43.595Z,17.85
2023-02-14T03:23:43.623Z,17.86
2023-02-14T03:24:43.576Z,17.85
2023-02-14T03:25:43.564Z,17.86
2023-02-14T03:26:43.560Z,17.86
2023-02-14T03:27:43.550Z,17.87
2023-02-14T03:28:43.537Z,17.87
2023-02-14T03:29:43.553Z,17.87
2023-02-14T03:30:43.653Z,17.86
2023-02-14T03:31:43.635Z,17.90
2023-02-14T03:32:43.499Z,17.89
2023-02-14T03:33:43.488Z,17.89
2023-02-14T03:34:43.477Z,17.87
2023-02-14T03:35:43.528Z,17.90
2023-02-14T03:36:43.444Z,17.89
2023-02-14T03:37:43.444Z,17.89
2023-02-14T03:38:43.438Z,17.90
2023-02-14T03:39:43.427Z,17.90
2023-02-14T03:40:43.415Z,17.90
2023-02-14T03:41:43.400Z,17.92
2023-02-14T03:42:43.408Z,17.92
2023-02-14T03:43:43.378Z,17.90
2023-02-14T03:44:43.376Z,17.89
2023-02-14T03:45:43.366Z,17.90
2023-02-14T03:46:43.414Z,17.90
2023-02-14T03:47:43.340Z,17.90
2023-02-14T03:48:43.323Z,17.92
2023-02-14T03:49:43.328Z,17.92
2023-02-14T03:50:43.304Z,17.92
2023-02-14T03:51:43.302Z,17.92
2023-02-14T03:52:43.378Z,17.92
2023-02-14T03:53:43.278Z,17.94
2023-02-14T03:54:43.272Z,17.94
2023-02-14T03:55:43.254Z,17.97
2023-02-14T03:56:43.250Z,17.97
2023-02-14T03:57:43.240Z,17.98
2023-02-14T03:58:43.225Z,17.98
2023-02-14T03:59:43.224Z,18.00
2023-02-14T04:00:43.200Z,18.00
2023-02-14T04:01:43.234Z,18.00
2023-02-14T04:02:43.187Z,18.00
2023-02-14T04:03:43.232Z,17.98
2023-02-14T04:04:43.170Z,17.98
2023-02-14T04:05:43.156Z,17.97
2023-02-14T04:06:43.134Z,17.97
2023-02-14T04:07:43.126Z,17.98
2023-02-14T04:08:43.113Z,17.98
2023-02-14T04:09:43.107Z,17.98
2023-02-14T04:10:43.104Z,17.98
2023-02-14T04:11:43.090Z,17.98
2023-02-14T04:12:43.072Z,18.01
2023-02-14T04:13:43.068Z,18.00
2023-02-14T04:14:43.050Z,17.98
2023-02-14T04:15:43.092Z,17.98
2023-02-14T04:16:43.040Z,17.98
2023-02-14T04:17:43.031Z,17.98
2023-02-14T04:18:43.011Z,17.98
2023-02-14T04:19:43.006Z,18.00
2023-02-14T04:20:42.995Z,18.00
2023-02-14T04:21:42.984Z,17.98
2023-02-14T04:22:42.979Z,18.00
2023-02-14T04:23:42.963Z,18.01
2023-02-14T04:24:42.957Z,18.04
2023-02-14T04:25:42.962Z,18.03
2023-02-14T04:26:42.935Z,18.04
2023-02-14T04:27:42.935Z,18.03
2023-02-14T04:28:42.906Z,18.05
2023-02-14T04:29:42.912Z,18.05
2023-02-14T04:30:42.891Z,18.07
2023-02-14T04:31:43.046Z,18.07
2023-02-14T04:32:42.878Z,18.08
2023-02-14T04:33:42.862Z,18.08
2023-02-14T04:34:42.853Z,18.10
2023-02-14T04:35:42.846Z,18.11
2023-02-14T04:36:42.829Z,18.11
2023-02-14T04:37:42.831Z,18.11
2023-02-14T04:38:42.812Z,18.10
2023-02-14T04:39:42.806Z,18.10
2023-02-14T04:40:42.786Z,18.10
2023-02-14T04:41:42.780Z,18.11
2023-02-14T04:42:42.769Z,18.13
2023-02-14T04:43:42.753Z,18.13
2023-02-14T04:44:42.738Z,18.16
2023-02-14T04:45:42.747Z,18.16
2023-02-14T04:46:42.761Z,18.20
2023-02-14T04:47:42.726Z,18.23
2023-02-14T04:48:42.701Z,18.29
2023-02-14T04:49:42.711Z,18.33
2023-02-14T04:50:42.717Z,18.35
2023-02-14T04:51:42.682Z,18.41
2023-02-14T04:52:42.662Z,18.43
2023-02-14T04:53:42.653Z,18.45
2023-02-14T04:54:42.643Z,18.50
2023-02-14T04:55:42.635Z,18.55
2023-02-14T04:56:42.620Z,18.56
2023-02-14T04:57:43.405Z,18.62
2023-02-14T04:58:42.593Z,18.66
2023-02-14T04:59:42.597Z,18.68
2023-02-14T05:00:42.586Z,18.74
2023-02-14T05:01:42.692Z,18.75
2023-02-14T05:02:42.560Z,18.78
2023-02-14T05:03:42.577Z,18.81
2023-02-14T05:04:42.528Z,18.83
2023-02-14T05:05:42.524Z,18.88
2023-02-14T05:06:42.508Z,18.90
2023-02-14T05:07:42.512Z,18.95
2023-02-14T05:08:42.517Z,18.96
2023-02-14T05:09:42.492Z,18.98
2023-02-14T05:10:42.481Z,19.00
2023-02-14T05:11:42.490Z,19.04
2023-02-14T05:12:42.451Z,19.09
2023-02-14T05:13:42.449Z,19.09
2023-02-14T05:14:42.432Z,19.12
2023-02-14T05:15:42.440Z,19.15
2023-02-14T05:16:42.496Z,19.18
2023-02-14T05:17:42.405Z,19.22
2023-02-14T05:18:42.399Z,19.24
2023-02-14T05:19:42.383Z,19.29
2023-02-14T05:20:42.358Z,19.27
2023-02-14T05:21:42.357Z,19.30
2023-02-14T05:22:42.342Z,19.34
2023-02-14T05:23:42.329Z,19.34
2023-02-14T05:24:42.330Z,19.40
2023-02-14T05:25:42.323Z,19.47
2023-02-14T05:26:42.296Z,19.48
2023-02-14T05:27:42.298Z,19.48
2023-02-14T05:28:42.280Z,19.52
2023-02-14T05:29:42.303Z,19.52
2023-02-14T05:30:42.494Z,19.55
2023-02-14T05:31:42.370Z,19.56
2023-02-14T05:32:42.232Z,19.58
2023-02-14T05:33:42.216Z,19.59
2023-02-14T05:34:42.211Z,19.59
2023-02-14T05:35:42.201Z,19.64
2023-02-14T05:36:42.195Z,19.66
2023-02-14T05:37:42.191Z,19.67
2023-02-14T05:38:42.159Z,19.69
2023-02-14T05:39:42.151Z,19.70
2023-02-14T05:40:42.210Z,19.74
2023-02-14T05:41:42.147Z,19.76
2023-02-14T05:42:42.146Z,19.76
2023-02-14T05:43:42.107Z,19.77
2023-02-14T05:44:42.105Z,19.77
2023-02-14T05:45:42.118Z,19.81
2023-02-14T05:46:42.097Z,19.82
2023-02-14T05:47:42.130Z,19.85
2023-02-14T05:48:42.058Z,19.86
2023-02-14T05:49:42.077Z,19.89
2023-02-14T05:50:42.038Z,19.91
2023-02-14T05:51:42.022Z,19.94
2023-02-14T05:52:42.039Z,19.94
2023-02-14T05:53:42.005Z,20.00
2023-02-14T05:54:42.005Z,20.03
2023-02-14T05:55:41.990Z,20.02
2023-02-14T05:56:41.971Z,20.02
2023-02-14T05:57:41.971Z,20.04
2023-02-14T05:58:41.953Z,20.09
2023-02-14T05:59:41.942Z,20.09
2023-02-14T06:00:41.936Z,20.09
2023-02-14T06:01:41.930Z,20.09
2023-02-14T06:02:41.920Z,20.09
2023-02-14T06:03:41.903Z,20.09
2023-02-14T06:04:41.935Z,20.11
2023-02-14T06:05:41.917Z,20.11
2023-02-14T06:06:41.867Z,20.13
2023-02-14T06:07:41.814Z,20.16
2023-02-14T06:08:41.851Z,20.18
2023-02-14T06:09:41.847Z,20.19
2023-02-14T06:10:41.831Z,20.21
2023-02-14T06:11:41.761Z,20.18
2023-02-14T06:12:41.807Z,20.21
2023-02-14T06:13:41.826Z,20.22
2023-02-14T06:14:41.780Z,20.21
2023-02-14T06:15:41.776Z,20.24
2023-02-14T06:16:41.766Z,20.24
2023-02-14T06:17:41.704Z,20.25
2023-02-14T06:18:41.696Z,20.25
2023-02-14T06:19:41.681Z,20.26
2023-02-14T06:20:41.666Z,20.31
2023-02-14T06:21:41.658Z,20.32
2023-02-14T06:22:41.640Z,20.32
2023-02-14T06:23:41.658Z,20.34
2023-02-14T06:24:41.632Z,20.34
2023-02-14T06:25:41.619Z,20.39
2023-02-14T06:26:41.674Z,20.40
2023-02-14T06:27:41.652Z,20.39
2023-02-14T06:28:41.606Z,20.40
2023-02-14T06:29:41.688Z,20.41
2023-02-14T06:30:41.699Z,20.41
2023-02-14T06:31:41.750Z,20.47
2023-02-14T06:32:41.546Z,20.47
2023-02-14T06:33:41.573Z,20.48
2023-02-14T06:34:41.531Z,20.50
2023-02-14T06:35:41.595Z,20.56
2023-02-14T06:36:41.514Z,20.55
2023-02-14T06:37:41.490Z,20.59
2023-02-14T06:38:41.490Z,20.59
2023-02-14T06:39:41.482Z,20.60
2023-02-14T06:40:41.461Z,20.63
2023-02-14T06:41:41.465Z,20.66
2023-02-14T06:42:41.457Z,20.67
2023-02-14T06:43:41.488Z,20.70
2023-02-14T06:44:41.435Z,20.70
2023-02-14T06:45:41.411Z,20.74
2023-02-14T06:46:41.393Z,20.78
2023-02-14T06:47:41.417Z,20.77
2023-02-14T06:48:41.382Z,20.78
2023-02-14T06:49:41.388Z,20.80
2023-02-14T06:50:41.345Z,20.81
2023-02-14T06:51:41.356Z,20.80
2023-02-14T06:52:41.332Z,20.84
2023-02-14T06:53:41.333Z,20.84
2023-02-14T06:54:41.331Z,20.81
2023-02-14T06:55:43.583Z,20.85
2023-02-14T06:56:41.283Z,20.85
2023-02-14T06:57:41.289Z,20.84
2023-02-14T06:58:41.262Z,20.85
2023-02-14T06:59:41.252Z,20.88
2023-02-14T07:00:41.251Z,20.84
2023-02-14T07:01:41.301Z,20.87
2023-02-14T07:02:41.351Z,20.87
2023-02-14T07:03:41.215Z,20.88
2023-02-14T07:04:41.200Z,20.90
2023-02-14T07:05:41.197Z,20.87
2023-02-14T07:06:41.190Z,20.92
2023-02-14T07:07:41.179Z,20.93
2023-02-14T07:08:41.194Z,20.92
2023-02-14T07:09:41.179Z,20.92
2023-02-14T07:10:41.169Z,20.95
2023-02-14T07:11:41.140Z,20.93
2023-02-14T07:12:41.146Z,20.96
2023-02-14T07:13:41.120Z,20.95
2023-02-14T07:14:41.093Z,20.96
2023-02-14T07:15:41.113Z,21.00
2023-02-14T07:16:41.144Z,21.00
2023-02-14T07:17:41.065Z,21.02
2023-02-14T07:18:41.060Z,21.02
2023-02-14T07:19:41.061Z,21.00
2023-02-14T07:20:41.028Z,21.00
2023-02-14T07:21:41.027Z,21.02
2023-02-14T07:22:41.038Z,21.00
2023-02-14T07:23:41.031Z,20.97
2023-02-14T07:24:40.986Z,20.99
2023-02-14T07:25:40.980Z,20.95
2023-02-14T07:26:40.964Z,20.97
2023-02-14T07:27:40.979Z,20.96
2023-02-14T07:28:40.944Z,20.95
2023-02-14T07:29:40.942Z,20.99
2023-02-14T07:30:40.997Z,20.99
2023-02-14T07:31:41.072Z,20.97
2023-02-14T07:32:40.913Z,20.97
2023-02-14T07:33:40.942Z,20.99
2023-02-14T07:34:40.897Z,21.00
2023-02-14T07:35:40.889Z,21.00
2023-02-14T07:36:40.877Z,21.02
2023-02-14T07:37:40.887Z,21.00
2023-02-14T07:38:40.864Z,21.05
2023-02-14T07:39:40.854Z,21.09
2023-02-14T07:40:40.840Z,21.11
2023-02-14T07:41:40.805Z,21.12
2023-02-14T07:42:40.850Z,21.17
2023-02-14T07:43:40.794Z,21.15
2023-02-14T07:44:40.871Z,21.15
2023-02-14T07:45:40.768Z,21.18
2023-02-14T07:46:40.786Z,21.15
2023-02-14T07:47:40.741Z,21.15
2023-02-14T07:48:40.759Z,21.15
2023-02-14T07:49:40.726Z,21.14
2023-02-14T07:50:40.731Z,21.14
2023-02-14T07:51:40.701Z,21.14
2023-02-14T07:52:40.692Z,21.18
2023-02-14T07:53:40.831Z,21.17
2023-02-14T07:54:40.675Z,21.21
2023-02-14T07:55:40.669Z,21.20
2023-02-14T07:56:40.658Z,21.22
2023-02-14T07:57:40.630Z,21.25
2023-02-14T07:58:40.628Z,21.22
2023-02-14T07:59:40.610Z,21.22
2023-02-14T08:00:40.660Z,21.27
2023-02-14T08:01:40.660Z,21.30
2023-02-14T08:02:40.584Z,21.29
2023-02-14T08:03:40.574Z,21.33
2023-02-14T08:04:40.632Z,21.32
2023-02-14T08:05:40.575Z,21.33
2023-02-14T08:06:40.539Z,21.36
2023-02-14T08:07:40.528Z,21.35
2023-02-14T08:08:40.538Z,21.36
2023-02-14T08:09:40.530Z,21.37
2023-02-14T08:10:40.512Z,21.36
2023-02-14T08:11:40.491Z,21.36
2023-02-14T08:12:40.475Z,21.39
2023-02-14T08:13:40.472Z,21.37
2023-02-14T08:14:40.534Z,21.39
2023-02-14T08:15:40.524Z,21.40
2023-02-14T08:16:40.429Z,21.42
2023-02-14T08:17:40.417Z,21.40
2023-02-14T08:18:40.446Z,21.39
2023-02-14T08:19:40.400Z,21.40
2023-02-14T08:20:40.423Z,21.40
2023-02-14T08:21:40.392Z,21.39
2023-02-14T08:22:40.369Z,21.42
2023-02-14T08:23:40.395Z,21.39
2023-02-14T08:24:40.365Z,21.42
2023-02-14T08:25:40.349Z,21.39
2023-02-14T08:26:40.324Z,21.40
2023-02-14T08:27:40.339Z,21.37
2023-02-14T08:28:40.302Z,21.42
2023-02-14T08:29:40.286Z,21.43
2023-02-14T08:30:40.312Z,21.43
2023-02-14T08:31:40.352Z,21.45
2023-02-14T08:32:40.424Z,21.42
2023-02-14T08:33:40.240Z,21.43
2023-02-14T08:34:40.241Z,21.40
2023-02-14T08:35:40.254Z,21.40
2023-02-14T08:36:40.221Z,21.39
2023-02-14T08:37:40.214Z,21.37
2023-02-14T08:38:40.216Z,21.39
2023-02-14T08:39:40.182Z,21.40
2023-02-14T08:40:40.221Z,21.39
2023-02-14T08:41:40.156Z,21.39
2023-02-14T08:42:40.157Z,21.42
2023-02-14T08:43:40.146Z,21.42
2023-02-14T08:44:40.133Z,21.40
2023-02-14T08:45:40.135Z,21.42
2023-02-14T08:46:40.151Z,21.40
2023-02-14T08:47:40.094Z,21.42
2023-02-14T08:48:40.098Z,21.40
2023-02-14T08:49:40.097Z,21.40
2023-02-14T08:50:40.132Z,21.40
2023-02-14T08:51:40.078Z,21.42
2023-02-14T08:52:40.100Z,21.43
2023-02-14T08:53:40.039Z,21.43
2023-02-14T08:54:40.027Z,21.43
2023-02-14T08:55:40.050Z,21.45
2023-02-14T08:56:40.012Z,21.46
2023-02-14T08:57:40.052Z,21.46
2023-02-14T08:58:40.086Z,21.46
2023-02-14T08:59:39.972Z,21.46
2023-02-14T09:00:40.035Z,21.48
2023-02-14T09:01:39.966Z,21.48
2023-02-14T09:02:39.937Z,21.48
2023-02-14T09:03:40.033Z,21.48
2023-02-14T09:04:40.010Z,21.45
2023-02-14T09:05:39.952Z,21.46
2023-02-14T09:06:39.929Z,21.42
2023-02-14T09:07:39.881Z,21.40
2023-02-14T09:08:39.899Z,21.43
2023-02-14T09:09:39.873Z,21.42
2023-02-14T09:10:39.928Z,21.43
2023-02-14T09:11:39.840Z,21.40
2023-02-14T09:12:39.833Z,21.42
2023-02-14T09:13:39.833Z,21.42
2023-02-14T09:14:39.830Z,21.40
2023-02-14T09:15:39.805Z,21.43
2023-02-14T09:16:39.878Z,21.45
2023-02-14T09:17:39.801Z,21.42
2023-02-14T09:18:39.794Z,21.43
2023-02-14T09:19:39.787Z,21.43
2023-02-14T09:20:39.752Z,21.42
2023-02-14T09:21:39.732Z,21.46
2023-02-14T09:22:39.730Z,21.45
2023-02-14T09:23:39.727Z,21.48
2023-02-14T09:24:39.716Z,21.51
2023-02-14T09:25:39.695Z,21.48
2023-02-14T09:26:39.695Z,21.48
2023-02-14T09:27:39.662Z,21.43
2023-02-14T09:28:39.696Z,21.45
2023-02-14T09:29:39.640Z,21.45
2023-02-14T09:30:39.643Z,21.42
2023-02-14T09:31:39.728Z,21.42
2023-02-14T09:32:39.621Z,21.42
2023-02-14T09:33:39.646Z,21.42
2023-02-14T09:34:39.609Z,21.42
2023-02-14T09:35:39.604Z,21.40
2023-02-14T09:36:39.578Z,21.37
2023-02-14T09:37:39.607Z,21.35
2023-02-14T09:38:39.600Z,21.33
2023-02-14T09:39:39.583Z,21.35
2023-02-14T09:40:39.534Z,21.36
2023-02-14T09:41:39.520Z,21.35
2023-02-14T09:42:39.569Z,21.35
2023-02-14T09:43:39.540Z,21.36
2023-02-14T09:44:39.499Z,21.32
2023-02-14T09:45:39.565Z,21.32
2023-02-14T09:46:39.489Z,21.30
2023-02-14T09:47:39.477Z,21.32
2023-02-14T09:48:39.534Z,21.35
2023-02-14T09:49:39.636Z,21.37
2023-02-14T09:50:39.449Z,21.37
2023-02-14T09:51:39.420Z,21.40
2023-02-14T09:52:39.409Z,21.40
2023-02-14T09:53:39.457Z,21.43
2023-02-14T09:54:39.408Z,21.45
2023-02-14T09:55:39.381Z,21.45
2023-02-14T09:56:50.649Z,21.46
2023-02-14T09:57:39.367Z,21.46
2023-02-14T09:58:39.356Z,21.43
2023-02-14T09:59:39.321Z,21.43
2023-02-14T10:00:39.433Z,21.40
2023-02-14T10:01:39.325Z,21.40
2023-02-14T10:02:39.363Z,21.40
2023-02-14T10:03:39.288Z,21.40
2023-02-14T10:04:39.850Z,21.40
2023-02-14T10:05:39.300Z,21.43
2023-02-14T10:06:39.278Z,21.42
2023-02-14T10:07:39.249Z,21.40
2023-02-14T10:08:39.236Z,21.37
2023-02-14T10:09:39.231Z,21.39
2023-02-14T10:10:39.742Z,21.39
2023-02-14T10:11:39.209Z,21.40
2023-02-14T10:12:39.191Z,21.39
2023-02-14T10:13:39.194Z,21.39
2023-02-14T10:14:39.187Z,21.35
2023-02-14T10:15:39.233Z,21.36
2023-02-14T10:16:39.247Z,21.35
2023-02-14T10:17:39.179Z,21.35
2023-02-14T10:18:39.143Z,21.39
2023-02-14T10:19:39.112Z,21.36
2023-02-14T10:20:39.105Z,21.33
2023-02-14T10:21:39.109Z,21.35
2023-02-14T10:22:39.147Z,21.33
2023-02-14T10:23:39.072Z,21.33
2023-02-14T10:24:39.078Z,21.32
2023-02-14T10:25:39.053Z,21.32
2023-02-14T10:26:39.055Z,21.30
2023-02-14T10:27:39.070Z,21.32
2023-02-14T10:28:39.021Z,21.32
2023-02-14T10:29:45.484Z,21.32
2023-02-14T10:30:39.155Z,21.32
2023-02-14T10:31:39.160Z,21.30
2023-02-14T10:32:38.977Z,21.29
2023-02-14T10:33:38.967Z,21.30
2023-02-14T10:34:38.976Z,21.30
2023-02-14T10:35:38.938Z,21.27
2023-02-14T10:36:38.945Z,21.25
2023-02-14T10:37:38.952Z,21.24
2023-02-14T10:38:38.918Z,21.20
2023-02-14T10:39:39.516Z,21.20
2023-02-14T10:40:38.912Z,21.15
2023-02-14T10:41:38.882Z,21.14
2023-02-14T10:42:38.884Z,21.12
2023-02-14T10:43:38.871Z,21.09
2023-02-14T10:44:38.854Z,21.09
2023-02-14T10:45:38.930Z,21.07
2023-02-14T10:46:38.857Z,21.03
2023-02-14T10:47:38.823Z,21.03
2023-02-14T10:48:38.811Z,21.02
2023-02-14T10:49:38.833Z,21.00
2023-02-14T10:50:38.794Z,20.97
2023-02-14T10:51:38.780Z,20.96
2023-02-14T10:52:38.780Z,20.96
2023-02-14T10:53:38.766Z,20.96
2023-02-14T10:54:38.758Z,20.96
2023-02-14T10:55:38.734Z,20.97
2023-02-14T10:56:38.762Z,20.96
2023-02-14T10:57:38.722Z,20.95
2023-02-14T10:58:38.728Z,20.96
2023-02-14T10:59:38.685Z,20.97
2023-02-14T11:00:38.688Z,20.96
2023-02-14T11:01:38.719Z,20.96
2023-02-14T11:02:38.658Z,20.96
2023-02-14T11:03:38.766Z,20.96
2023-02-14T11:04:38.672Z,20.99
2023-02-14T11:05:38.660Z,20.97
2023-02-14T11:06:38.637Z,20.97
2023-02-14T11:07:38.611Z,21.02
2023-02-14T11:08:38.646Z,21.00
2023-02-14T11:09:38.589Z,21.00
2023-02-14T11:10:38.584Z,21.00
2023-02-14T11:11:38.592Z,20.97
2023-02-14T11:12:38.570Z,21.00
2023-02-14T11:13:38.558Z,20.99
2023-02-14T11:14:38.552Z,20.99
2023-02-14T11:15:38.541Z,20.99
2023-02-14T11:16:38.521Z,21.00
2023-02-14T11:17:38.508Z,21.00
2023-02-14T11:18:38.489Z,21.03
2023-02-14T11:19:38.484Z,21.03
2023-02-14T11:20:38.716Z,21.03
2023-02-14T11:21:38.453Z,21.05
2023-02-14T11:22:38.448Z,21.05
2023-02-14T11:23:38.437Z,21.09
2023-02-14T11:24:38.420Z,21.05
2023-02-14T11:25:38.422Z,21.07
2023-02-14T11:26:38.412Z,21.07
2023-02-14T11:27:38.406Z,21.07
2023-02-14T11:28:40.963Z,21.09
2023-02-14T11:29:38.366Z,21.11
2023-02-14T11:30:38.384Z,21.11
2023-02-14T11:31:38.423Z,21.09
2023-02-14T11:32:38.341Z,21.12
2023-02-14T11:33:38.338Z,21.12
2023-02-14T11:34:38.360Z,21.12
2023-02-14T11:35:38.322Z,21.12
2023-02-14T11:36:38.306Z,21.12
2023-02-14T11:37:38.288Z,21.14
2023-02-14T11:38:38.312Z,21.14
2023-02-14T11:39:38.275Z,21.14
2023-02-14T11:40:38.267Z,21.15
2023-02-14T11:41:38.242Z,21.14
2023-02-14T11:42:38.230Z,21.12
2023-02-14T11:43:38.250Z,21.11
2023-02-14T11:44:38.289Z,21.14
2023-02-14T11:45:38.217Z,21.14
2023-02-14T11:46:41.368Z,21.12
2023-02-14T11:47:38.178Z,21.15
2023-02-14T11:48:39.374Z,21.11
2023-02-14T11:49:38.180Z,21.14
2023-02-14T11:50:38.150Z,21.14
2023-02-14T11:51:38.142Z,21.14
2023-02-14T11:52:38.121Z,21.15
2023-02-14T11:53:38.136Z,21.11
2023-02-14T11:54:38.116Z,21.11
2023-02-14T11:55:38.091Z,21.14
2023-02-14T11:56:38.088Z,21.12
2023-02-14T11:57:38.106Z,21.11
2023-02-14T11:58:38.064Z,21.11
2023-02-14T11:59:38.061Z,21.09
2023-02-14T12:00:38.045Z,21.11
2023-02-14T12:01:38.081Z,21.14
2023-02-14T12:02:38.165Z,21.09
2023-02-14T12:03:38.057Z,21.11
2023-02-14T12:04:45.679Z,21.12
2023-02-14T12:05:38.013Z,21.11
2023-02-14T12:06:37.977Z,21.14
2023-02-14T12:07:37.986Z,21.07
2023-02-14T12:08:38.063Z,21.11
2023-02-14T12:09:37.948Z,21.12
2023-02-14T12:10:37.961Z,21.07
2023-02-14T12:11:37.941Z,21.09
2023-02-14T12:12:37.910Z,21.07
2023-02-14T12:13:37.923Z,21.06
2023-02-14T12:14:37.889Z,21.05
2023-02-14T12:15:38.097Z,21.06
2023-02-14T12:16:37.868Z,21.03
2023-02-14T12:17:37.890Z,21.05
2023-02-14T12:18:37.851Z,21.02
2023-02-14T12:19:37.837Z,21.00
2023-02-14T12:20:37.852Z,21.02
2023-02-14T12:21:37.819Z,21.02
2023-02-14T12:22:37.847Z,21.00
2023-02-14T12:23:37.811Z,21.00
2023-02-14T12:24:37.780Z,20.99
2023-02-14T12:25:37.775Z,20.97
2023-02-14T12:26:37.780Z,20.96
2023-02-14T12:27:37.760Z,20.96
2023-02-14T12:28:37.751Z,20.97
2023-02-14T12:29:37.747Z,20.96
2023-02-14T12:30:37.714Z,20.97
2023-02-14T12:31:37.785Z,20.96
2023-02-14T12:32:37.693Z,20.97
2023-02-14T12:33:37.719Z,20.95
2023-02-14T12:34:37.688Z,20.96
2023-02-14T12:35:37.676Z,20.96
2023-02-14T12:36:37.648Z,20.93
2023-02-14T12:37:37.640Z,20.96
2023-02-14T12:38:37.646Z,20.93
2023-02-14T12:39:37.648Z,20.95
2023-02-14T12:40:37.742Z,20.95
2023-02-14T12:41:37.621Z,20.93
2023-02-14T12:42:37.611Z,20.92
2023-02-14T12:43:37.588Z,20.93
2023-02-14T12:44:37.597Z,20.93
2023-02-14T12:45:37.587Z,20.92
2023-02-14T12:46:37.580Z,20.96
2023-02-14T12:47:37.544Z,20.93
2023-02-14T12:48:37.549Z,20.93
2023-02-14T12:49:37.555Z,20.93
2023-02-14T12:50:37.557Z,20.95
2023-02-14T12:51:37.500Z,20.93
2023-02-14T12:52:37.490Z,20.95